createdAt,value
2018-06-17T00:00:41.765Z,12.61
2018-06-17T00:01:41.772Z,12.54
2018-06-17T00:02:41.809Z,12.49
2018-06-17T00:03:41.836Z,12.57
2018-06-17T00:04:41.786Z,12.8
2018-06-17T00:05:41.862Z,12.88
2018-06-17T00:06:41.791Z,12.79
2018-06-17T00:07:41.909Z,12.91
2018-06-17T00:08:41.875Z,12.66
2018-06-17T00:09:41.858Z,12.79
2018-06-17T00:10:41.779Z,12.84
2018-06-17T00:11:41.770Z,12.85
2018-06-17T00:12:41.762Z,12.72
2018-06-17T00:13:41.755Z,12.92
2018-06-17T00:14:41.774Z,12.89
2018-06-17T00:15:41.758Z,12.94
2018-06-17T00:16:41.765Z,12.89
2018-06-17T00:17:41.777Z,12.8
2018-06-17T00:18:41.820Z,12.92
2018-06-17T00:19:41.766Z,12.87
2018-06-17T00:20:41.747Z,12.88
2018-06-17T00:21:41.761Z,12.87
2018-06-17T00:22:41.780Z,12.88
2018-06-17T00:23:41.762Z,12.96
2018-06-17T00:24:41.934Z,13
2018-06-17T00:25:41.798Z,12.98
2018-06-17T00:26:41.772Z,12.95
2018-06-17T00:27:41.816Z,12.87
2018-06-17T00:28:41.768Z,12.83
2018-06-17T00:29:41.760Z,12.76
2018-06-17T00:30:41.766Z,12.72
2018-06-17T00:31:41.803Z,12.73
2018-06-17T00:32:41.783Z,12.73
2018-06-17T00:33:41.787Z,12.78
2018-06-17T00:34:41.778Z,12.64
2018-06-17T00:35:41.824Z,12.57
2018-06-17T00:36:41.779Z,12.67
2018-06-17T00:37:41.806Z,12.65
2018-06-17T00:38:41.781Z,12.69
2018-06-17T00:39:42.135Z,12.72
2018-06-17T00:40:41.803Z,12.64
2018-06-17T00:41:41.790Z,12.79
2018-06-17T00:42:41.813Z,12.5
2018-06-17T00:43:41.815Z,12.75
2018-06-17T00:44:41.820Z,12.64
2018-06-17T00:45:41.799Z,12.74
2018-06-17T00:46:41.807Z,12.79
2018-06-17T00:47:41.822Z,12.74
2018-06-17T00:48:41.822Z,12.63
2018-06-17T00:49:41.787Z,12.5
2018-06-17T00:50:42.002Z,12.66
2018-06-17T00:51:41.819Z,12.77
2018-06-17T00:52:41.828Z,12.68
2018-06-17T00:53:42.330Z,12.59
2018-06-17T00:54:41.811Z,12.55
2018-06-17T00:55:41.827Z,12.41
2018-06-17T00:56:41.913Z,12.56
2018-06-17T00:57:41.841Z,12.56
2018-06-17T00:58:41.867Z,12.68
2018-06-17T00:59:41.873Z,12.69
2018-06-17T01:00:42.062Z,12.71
2018-06-17T01:01:41.844Z,12.75
2018-06-17T01:02:42.367Z,12.62
2018-06-17T01:03:42.302Z,12.82
2018-06-17T01:04:42.574Z,12.74
2018-06-17T01:05:42.768Z,12.68
2018-06-17T01:06:42.575Z,12.54
2018-06-17T01:07:42.566Z,12.65
2018-06-17T01:08:42.604Z,12.74
2018-06-17T01:09:42.579Z,12.63
2018-06-17T01:10:42.594Z,12.71
2018-06-17T01:11:42.557Z,12.77
2018-06-17T01:12:42.603Z,12.54
2018-06-17T01:13:42.841Z,12.71
2018-06-17T01:14:42.625Z,12.82
2018-06-17T01:15:42.570Z,12.83
2018-06-17T01:16:42.596Z,12.7
2018-06-17T01:17:42.594Z,12.85
2018-06-17T01:18:42.551Z,12.82
2018-06-17T01:19:42.653Z,12.64
2018-06-17T01:20:42.580Z,12.65
2018-06-17T01:21:42.518Z,12.46
2018-06-17T01:22:42.605Z,12.69
2018-06-17T01:23:42.612Z,12.59
2018-06-17T01:24:42.611Z,12.66
2018-06-17T01:25:42.567Z,12.49
2018-06-17T01:26:42.599Z,12.6
2018-06-17T01:27:42.621Z,12.45
2018-06-17T01:28:42.642Z,12.63
2018-06-17T01:29:42.628Z,12.67
2018-06-17T01:30:42.570Z,12.67
2018-06-17T01:31:42.634Z,12.73
2018-06-17T01:32:42.612Z,12.8
2018-06-17T01:33:42.552Z,12.73
2018-06-17T01:34:42.742Z,12.53
2018-06-17T01:35:42.638Z,12.5
2018-06-17T01:36:42.733Z,12.52
2018-06-17T01:37:42.631Z,12.44
2018-06-17T01:38:42.639Z,12.72
2018-06-17T01:39:42.594Z,12.62
2018-06-17T01:40:42.694Z,12.73
2018-06-17T01:41:42.724Z,12.81
2018-06-17T01:42:43.335Z,12.79
2018-06-17T01:43:42.688Z,12.82
2018-06-17T01:44:42.682Z,12.82
2018-06-17T01:45:42.684Z,12.68
2018-06-17T01:46:42.669Z,12.85
2018-06-17T01:47:42.853Z,12.77
2018-06-17T01:48:42.710Z,12.89
2018-06-17T01:49:42.616Z,12.76
2018-06-17T01:50:43.174Z,12.76
2018-06-17T01:51:42.621Z,12.74
2018-06-17T01:52:42.594Z,12.87
2018-06-17T01:53:42.650Z,12.88
2018-06-17T01:54:42.592Z,12.87
2018-06-17T01:55:42.650Z,12.83
2018-06-17T01:56:42.780Z,12.83
2018-06-17T01:57:42.591Z,12.85
2018-06-17T01:58:42.660Z,12.79
2018-06-17T01:59:42.583Z,12.83
2018-06-17T02:00:42.725Z,12.79
2018-06-17T02:01:42.721Z,12.74
2018-06-17T02:02:42.660Z,12.67
2018-06-17T02:03:42.886Z,12.73
2018-06-17T02:04:41.890Z,12.75
2018-06-17T02:05:41.891Z,12.7
2018-06-17T02:06:41.917Z,12.73
2018-06-17T02:07:41.987Z,12.66
2018-06-17T02:08:41.931Z,12.69
2018-06-17T02:09:42.652Z,12.65
2018-06-17T02:10:41.903Z,12.7
2018-06-17T02:11:41.898Z,12.71
2018-06-17T02:12:41.904Z,12.74
2018-06-17T02:13:41.908Z,12.66
2018-06-17T02:14:41.877Z,12.7
2018-06-17T02:15:41.916Z,12.59
2018-06-17T02:16:42.053Z,12.71
2018-06-17T02:17:42.051Z,12.73
2018-06-17T02:18:41.904Z,12.76
2018-06-17T02:19:42.057Z,12.7
2018-06-17T02:20:41.985Z,12.77
2018-06-17T02:21:41.918Z,12.79
2018-06-17T02:22:41.954Z,12.81
2018-06-17T02:23:42.022Z,12.78
2018-06-17T02:24:41.917Z,12.78
2018-06-17T02:25:42.100Z,12.81
2018-06-17T02:26:41.904Z,12.84
2018-06-17T02:27:41.918Z,12.76
2018-06-17T02:28:41.910Z,12.79
2018-06-17T02:29:41.991Z,12.8
2018-06-17T02:30:41.968Z,12.79
2018-06-17T02:31:41.930Z,12.74
2018-06-17T02:32:41.939Z,12.84
2018-06-17T02:33:41.921Z,12.83
2018-06-17T02:34:41.936Z,12.81
2018-06-17T02:35:41.938Z,12.83
2018-06-17T02:36:41.947Z,12.77
2018-06-17T02:37:41.956Z,12.81
2018-06-17T02:38:41.963Z,12.81
2018-06-17T02:39:42.092Z,12.81
2018-06-17T02:40:41.950Z,12.8
2018-06-17T02:41:41.940Z,12.74
2018-06-17T02:42:41.947Z,12.69
2018-06-17T02:43:41.952Z,12.71
2018-06-17T02:44:42.123Z,12.7
2018-06-17T02:45:42.053Z,12.66
2018-06-17T02:46:42.108Z,12.65
2018-06-17T02:47:42.051Z,12.59
2018-06-17T02:48:42.038Z,12.54
2018-06-17T02:49:41.948Z,12.58
2018-06-17T02:50:41.948Z,12.69
2018-06-17T02:51:42.037Z,12.79
2018-06-17T02:52:42.066Z,12.8
2018-06-17T02:53:42.082Z,12.78
2018-06-17T02:54:42.010Z,12.84
2018-06-17T02:55:42.073Z,12.83
2018-06-17T02:56:41.951Z,12.87
2018-06-17T02:57:41.987Z,12.97
2018-06-17T02:58:42.005Z,12.82
2018-06-17T02:59:42.024Z,12.95
2018-06-17T03:00:41.988Z,13.11
2018-06-17T03:01:42.048Z,13.19
2018-06-17T03:02:42.003Z,13.08
2018-06-17T03:03:42.174Z,13.23
2018-06-17T03:04:42.091Z,13.09
2018-06-17T03:05:41.993Z,13.19
2018-06-17T03:06:42.062Z,13.29
2018-06-17T03:07:42.048Z,13.25
2018-06-17T03:08:42.077Z,13.14
2018-06-17T03:09:41.960Z,13.24
2018-06-17T03:10:41.991Z,13.23
2018-06-17T03:11:42.048Z,13.26
2018-06-17T03:12:42.006Z,13.16
2018-06-17T03:13:42.057Z,13.22
2018-06-17T03:14:42.091Z,13.17
2018-06-17T03:15:42.151Z,13.08
2018-06-17T03:16:42.140Z,13.09
2018-06-17T03:17:42.147Z,13.17
2018-06-17T03:18:42.073Z,13.19
2018-06-17T03:19:41.980Z,13.2
2018-06-17T03:20:41.997Z,13.22
2018-06-17T03:21:42.039Z,13.26
2018-06-17T03:22:42.000Z,13.22
2018-06-17T03:23:42.004Z,13.2
2018-06-17T03:24:42.288Z,13.27
2018-06-17T03:25:42.018Z,13.32
2018-06-17T03:26:42.099Z,13.27
2018-06-17T03:27:42.075Z,13.26
2018-06-17T03:28:42.015Z,13.41
2018-06-17T03:29:42.135Z,13.38
2018-06-17T03:30:42.208Z,13.34
2018-06-17T03:31:42.029Z,13.49
2018-06-17T03:32:42.020Z,13.56
2018-06-17T03:33:42.084Z,13.5
2018-06-17T03:34:41.999Z,13.56
2018-06-17T03:35:42.043Z,13.65
2018-06-17T03:36:42.048Z,13.42
2018-06-17T03:37:41.981Z,13.48
2018-06-17T03:38:42.020Z,13.3
2018-06-17T03:39:41.989Z,13.56
2018-06-17T03:40:42.014Z,13.53
2018-06-17T03:41:42.006Z,13.51
2018-06-17T03:42:42.019Z,13.57
2018-06-17T03:43:42.001Z,13.57
2018-06-17T03:44:42.003Z,13.58
2018-06-17T03:45:42.012Z,13.67
2018-06-17T03:46:42.057Z,13.62
2018-06-17T03:47:42.010Z,13.73
2018-06-17T03:48:42.014Z,13.68
2018-06-17T03:49:42.022Z,13.63
2018-06-17T03:50:41.999Z,13.72
2018-06-17T03:51:42.017Z,13.64
2018-06-17T03:52:42.013Z,13.73
2018-06-17T03:53:42.031Z,13.51
2018-06-17T03:54:42.004Z,13.4
2018-06-17T03:55:42.174Z,13.38
2018-06-17T03:56:42.052Z,13.25
2018-06-17T03:57:42.028Z,13.23
2018-06-17T03:58:42.090Z,13.22
2018-06-17T03:59:42.200Z,13.17
2018-06-17T04:00:42.063Z,13.2
2018-06-17T04:01:42.038Z,13.19
2018-06-17T04:02:42.263Z,13.05
2018-06-17T04:03:42.084Z,13.1
2018-06-17T04:04:42.187Z,13.15
2018-06-17T04:05:42.140Z,13.05
2018-06-17T04:06:42.089Z,12.97
2018-06-17T04:07:42.100Z,12.94
2018-06-17T04:08:42.029Z,12.99
2018-06-17T04:09:42.057Z,12.94
2018-06-17T04:10:42.140Z,12.92
2018-06-17T04:11:42.274Z,12.64
2018-06-17T04:12:42.618Z,12.69
2018-06-17T04:13:42.053Z,12.71
2018-06-17T04:14:42.239Z,12.66
2018-06-17T04:15:42.126Z,12.62
2018-06-17T04:16:42.082Z,12.46
2018-06-17T04:17:42.039Z,12.42
2018-06-17T04:18:42.064Z,12.35
2018-06-17T04:19:42.049Z,12.24
2018-06-17T04:20:42.035Z,12.18
2018-06-17T04:21:42.069Z,12.12
2018-06-17T04:22:42.070Z,12.27
2018-06-17T04:23:42.046Z,12.29
2018-06-17T04:24:42.073Z,12.33
2018-06-17T04:25:42.886Z,12.35
2018-06-17T04:26:42.093Z,12.31
2018-06-17T04:27:42.135Z,12.3
2018-06-17T04:28:42.051Z,12.35
2018-06-17T04:29:42.061Z,12.3
2018-06-17T04:30:42.065Z,12.26
2018-06-17T04:31:42.062Z,12.27
2018-06-17T04:32:42.219Z,12.3
2018-06-17T04:33:42.103Z,12.28
2018-06-17T04:34:42.058Z,12.3
2018-06-17T04:35:42.085Z,12.2
2018-06-17T04:36:42.058Z,12.18
2018-06-17T04:37:42.094Z,12.16
2018-06-17T04:38:42.298Z,12.15
2018-06-17T04:39:42.068Z,12.09
2018-06-17T04:40:42.051Z,12.07
2018-06-17T04:41:42.066Z,12.09
2018-06-17T04:42:42.255Z,12.09
2018-06-17T04:43:42.110Z,12.11
2018-06-17T04:44:42.123Z,11.97
2018-06-17T04:45:42.166Z,11.92
2018-06-17T04:46:42.372Z,11.93
2018-06-17T04:47:42.098Z,11.93
2018-06-17T04:48:42.098Z,11.94
2018-06-17T04:49:42.073Z,11.97
2018-06-17T04:50:42.099Z,11.93
2018-06-17T04:51:42.114Z,11.95
2018-06-17T04:52:42.084Z,11.91
2018-06-17T04:53:42.085Z,11.96
2018-06-17T04:54:42.070Z,12
2018-06-17T04:55:42.062Z,12.03
2018-06-17T04:56:42.089Z,11.98
2018-06-17T04:57:42.105Z,11.99
2018-06-17T04:58:42.113Z,11.9
2018-06-17T04:59:42.116Z,11.9
2018-06-17T05:00:42.074Z,11.85
2018-06-17T05:01:42.089Z,11.83
2018-06-17T05:02:42.092Z,11.79
2018-06-17T05:03:42.096Z,11.85
2018-06-17T05:04:42.093Z,11.72
2018-06-17T05:05:42.118Z,11.7
2018-06-17T05:06:42.099Z,11.72
2018-06-17T05:07:42.114Z,11.73
2018-06-17T05:08:42.121Z,11.66
2018-06-17T05:09:42.168Z,11.65
2018-06-17T05:10:42.133Z,11.71
2018-06-17T05:11:42.251Z,11.7
2018-06-17T05:12:42.332Z,11.67
2018-06-17T05:13:42.167Z,11.69
2018-06-17T05:14:42.236Z,11.66
2018-06-17T05:15:42.240Z,11.58
2018-06-17T05:16:42.201Z,11.67
2018-06-17T05:17:42.226Z,11.7
2018-06-17T05:18:42.230Z,11.79
2018-06-17T05:19:42.153Z,11.72
2018-06-17T05:20:42.101Z,11.73
2018-06-17T05:21:42.136Z,11.71
2018-06-17T05:22:42.154Z,11.7
2018-06-17T05:23:42.176Z,11.56
2018-06-17T05:24:42.126Z,11.7
2018-06-17T05:25:42.149Z,11.72
2018-06-17T05:26:42.178Z,11.65
2018-06-17T05:27:42.163Z,11.64
2018-06-17T05:28:42.258Z,11.74
2018-06-17T05:29:42.203Z,11.61
2018-06-17T05:30:42.177Z,11.69
2018-06-17T05:31:42.130Z,11.66
2018-06-17T05:32:42.141Z,11.55
2018-06-17T05:33:42.448Z,11.77
2018-06-17T05:34:42.154Z,11.71
2018-06-17T05:35:42.164Z,11.5
2018-06-17T05:36:42.146Z,11.61
2018-06-17T05:37:42.144Z,11.37
2018-06-17T05:38:42.130Z,11.3
2018-06-17T05:39:42.248Z,11.37
2018-06-17T05:40:42.170Z,11.37
2018-06-17T05:41:42.136Z,11.33
2018-06-17T05:42:42.148Z,11.37
2018-06-17T05:43:42.183Z,11.51
2018-06-17T05:44:42.327Z,11.51
2018-06-17T05:45:42.156Z,11.35
2018-06-17T05:46:42.239Z,11.35
2018-06-17T05:47:42.210Z,11.4
2018-06-17T05:48:42.152Z,11.39
2018-06-17T05:49:42.163Z,11.4
2018-06-17T05:50:42.173Z,11.39
2018-06-17T05:51:42.278Z,11.44
2018-06-17T05:52:42.218Z,11.4
2018-06-17T05:53:42.144Z,11.23
2018-06-17T05:54:42.222Z,11.4
2018-06-17T05:55:42.759Z,11.23
2018-06-17T05:56:42.146Z,11.34
2018-06-17T05:57:42.214Z,11.37
2018-06-17T05:58:42.160Z,11.36
2018-06-17T05:59:42.150Z,11.43
2018-06-17T06:00:42.404Z,11.38
2018-06-17T06:01:42.180Z,11.32
2018-06-17T06:02:42.308Z,11.39
2018-06-17T06:03:42.230Z,11.29
2018-06-17T06:04:42.162Z,11.32
2018-06-17T06:05:42.173Z,11.38
2018-06-17T06:06:42.179Z,11.39
2018-06-17T06:07:42.253Z,11.3
2018-06-17T06:08:42.160Z,11.28
2018-06-17T06:09:42.226Z,11.33
2018-06-17T06:10:42.228Z,11.4
2018-06-17T06:11:42.158Z,11.25
2018-06-17T06:12:42.183Z,11.4
2018-06-17T06:13:42.624Z,11.37
2018-06-17T06:14:42.166Z,11.32
2018-06-17T06:15:42.186Z,11.2
2018-06-17T06:16:42.467Z,11.19
2018-06-17T06:17:42.520Z,11.3
2018-06-17T06:18:42.171Z,11.3
2018-06-17T06:19:42.269Z,11.36
2018-06-17T06:20:42.206Z,11.35
2018-06-17T06:21:42.561Z,11.24
2018-06-17T06:22:43.920Z,11.22
2018-06-17T06:23:43.603Z,11.31
2018-06-17T06:24:42.719Z,11.18
2018-06-17T06:25:42.305Z,11.24
2018-06-17T06:26:42.190Z,11.25
2018-06-17T06:27:42.197Z,11.37
2018-06-17T06:28:42.349Z,11.34
2018-06-17T06:29:42.209Z,11.36
2018-06-17T06:30:42.209Z,11.17
2018-06-17T06:31:42.217Z,11.08
2018-06-17T06:32:42.219Z,11.1
2018-06-17T06:33:42.265Z,11.17
2018-06-17T06:34:42.370Z,11.26
2018-06-17T06:35:42.235Z,11.24
2018-06-17T06:36:42.215Z,11.11
2018-06-17T06:37:42.221Z,10.99
2018-06-17T06:38:42.230Z,10.96
2018-06-17T06:39:42.192Z,11.12
2018-06-17T06:40:42.254Z,11.04
2018-06-17T06:41:42.276Z,10.98
2018-06-17T06:42:42.285Z,11.02
2018-06-17T06:43:42.224Z,10.96
2018-06-17T06:44:42.227Z,10.84
2018-06-17T06:45:42.660Z,10.84
2018-06-17T06:46:42.217Z,10.93
2018-06-17T06:47:42.251Z,11.11
2018-06-17T06:48:42.222Z,10.91
2018-06-17T06:49:42.218Z,11.09
2018-06-17T06:50:42.226Z,11.02
2018-06-17T06:51:42.231Z,10.98
2018-06-17T06:52:42.240Z,10.86
2018-06-17T06:53:42.370Z,10.79
2018-06-17T06:54:42.228Z,10.99
2018-06-17T06:55:42.298Z,10.9
2018-06-17T06:56:42.279Z,10.93
2018-06-17T06:57:42.256Z,10.91
2018-06-17T06:58:42.344Z,10.84
2018-06-17T06:59:42.254Z,10.86
2018-06-17T07:00:42.239Z,10.99
2018-06-17T07:01:42.282Z,10.91
2018-06-17T07:02:42.288Z,10.84
2018-06-17T07:03:42.299Z,10.96
2018-06-17T07:04:42.278Z,10.92
2018-06-17T07:05:42.499Z,10.9
2018-06-17T07:06:42.242Z,10.9
2018-06-17T07:07:42.740Z,11
2018-06-17T07:08:42.275Z,11.18
2018-06-17T07:09:42.376Z,10.96
2018-06-17T07:10:42.286Z,11.12
2018-06-17T07:11:42.250Z,11.05
2018-06-17T07:12:42.384Z,10.92
2018-06-17T07:13:42.248Z,10.95
2018-06-17T07:14:42.414Z,10.87
2018-06-17T07:15:42.875Z,10.93
2018-06-17T07:16:42.629Z,10.87
2018-06-17T07:17:42.268Z,10.73
2018-06-17T07:18:42.284Z,10.51
2018-06-17T07:19:42.306Z,10.35
2018-06-17T07:20:42.325Z,10.42
2018-06-17T07:21:42.288Z,10.36
2018-06-17T07:22:42.292Z,10.45
2018-06-17T07:23:42.296Z,10.54
2018-06-17T07:24:42.266Z,10.49
2018-06-17T07:25:42.268Z,10.48
2018-06-17T07:26:42.282Z,10.34
2018-06-17T07:27:42.265Z,10.51
2018-06-17T07:28:42.276Z,10.41
2018-06-17T07:29:42.484Z,10.44
2018-06-17T07:30:42.248Z,10.34
2018-06-17T07:31:42.488Z,10.39
2018-06-17T07:32:42.645Z,10.43
2018-06-17T07:33:42.305Z,10.39
2018-06-17T07:34:42.273Z,10.47
2018-06-17T07:35:42.356Z,10.49
2018-06-17T07:36:42.288Z,10.41
2018-06-17T07:37:42.337Z,10.61
2018-06-17T07:38:42.413Z,10.65
2018-06-17T07:39:42.485Z,10.55
2018-06-17T07:40:42.402Z,10.61
2018-06-17T07:41:42.296Z,10.74
2018-06-17T07:42:42.272Z,10.74
2018-06-17T07:43:42.573Z,10.76
2018-06-17T07:44:42.323Z,10.57
2018-06-17T07:45:42.290Z,10.54
2018-06-17T07:46:42.277Z,10.2
2018-06-17T07:47:42.409Z,10.05
2018-06-17T07:48:42.324Z,10.01
2018-06-17T07:49:42.345Z,9.9
2018-06-17T07:50:42.327Z,10.04
2018-06-17T07:51:42.373Z,9.96
2018-06-17T07:52:42.319Z,9.92
2018-06-17T07:53:42.334Z,9.92
2018-06-17T07:54:42.364Z,9.92
2018-06-17T07:55:42.421Z,10.01
2018-06-17T07:56:42.473Z,10.02
2018-06-17T07:57:42.448Z,10.05
2018-06-17T07:58:42.405Z,10.11
2018-06-17T07:59:42.466Z,10.14
2018-06-17T08:00:42.304Z,10.14
2018-06-17T08:01:42.364Z,9.6
2018-06-17T08:02:42.379Z,9.63
2018-06-17T08:03:42.314Z,9.94
2018-06-17T08:04:42.619Z,9.81
2018-06-17T08:05:42.505Z,9.91
2018-06-17T08:06:42.435Z,9.87
2018-06-17T08:07:42.612Z,9.78
2018-06-17T08:08:42.321Z,9.87
2018-06-17T08:09:42.304Z,9.81
2018-06-17T08:10:42.581Z,10.06
2018-06-17T08:11:42.332Z,9.3
2018-06-17T08:12:42.317Z,9.48
2018-06-17T08:13:42.306Z,9.17
2018-06-17T08:14:42.533Z,9.32
2018-06-17T08:15:42.449Z,9.54
2018-06-17T08:16:42.340Z,9.73
2018-06-17T08:17:42.398Z,9.63
2018-06-17T08:18:42.455Z,9.79
2018-06-17T08:19:42.317Z,9.71
2018-06-17T08:20:42.500Z,9.81
2018-06-17T08:21:42.366Z,9.32
2018-06-17T08:22:42.353Z,9.44
2018-06-17T08:23:42.348Z,9.42
2018-06-17T08:24:42.361Z,9.3
2018-06-17T08:25:42.357Z,9.26
2018-06-17T08:26:49.602Z,9.23
2018-06-17T08:27:42.348Z,8.82
2018-06-17T08:28:42.355Z,8.97
2018-06-17T08:29:43.008Z,8.91
2018-06-17T08:30:51.002Z,9.02
2018-06-17T08:31:47.914Z,9.25
2018-06-17T08:32:54.787Z,9.32
2018-06-17T08:33:45.528Z,9.44
2018-06-17T08:34:46.771Z,9.37
2018-06-17T08:35:46.449Z,9.63
2018-06-17T08:36:42.374Z,9.63
2018-06-17T08:37:42.390Z,9.73
2018-06-17T08:38:42.375Z,9.89
2018-06-17T08:39:42.375Z,9.91
2018-06-17T08:40:42.698Z,9.95
2018-06-17T08:41:42.421Z,10.04
2018-06-17T08:42:42.344Z,10.15
2018-06-17T08:43:42.356Z,10.12
2018-06-17T08:44:42.348Z,10.03
2018-06-17T08:45:42.370Z,10.03
2018-06-17T08:46:42.664Z,9.98
2018-06-17T08:47:42.356Z,9.97
2018-06-17T08:48:42.387Z,9.84
2018-06-17T08:49:42.378Z,10.08
2018-06-17T08:50:42.435Z,9.97
2018-06-17T08:51:42.359Z,10.07
2018-06-17T08:52:42.525Z,10.19
2018-06-17T08:53:42.398Z,10.13
2018-06-17T08:54:42.391Z,10.18
2018-06-17T08:55:42.525Z,10.28
2018-06-17T08:56:42.390Z,10.32
2018-06-17T08:57:42.368Z,10.26
2018-06-17T08:58:42.646Z,10.26
2018-06-17T08:59:42.564Z,10.13
2018-06-17T09:00:42.390Z,10.03
2018-06-17T09:01:42.423Z,10.02
2018-06-17T09:02:42.493Z,10.14
2018-06-17T09:03:42.418Z,9.96
2018-06-17T09:04:42.598Z,10.07
2018-06-17T09:05:42.432Z,10.16
2018-06-17T09:06:42.532Z,9.89
2018-06-17T09:07:42.618Z,10.15
2018-06-17T09:08:42.520Z,10.23
2018-06-17T09:09:42.619Z,10.15
2018-06-17T09:10:42.774Z,10.01
2018-06-17T09:11:42.549Z,10.08
2018-06-17T09:12:42.523Z,10.02
2018-06-17T09:13:42.441Z,10.08
2018-06-17T09:14:42.589Z,10.1
2018-06-17T09:15:42.764Z,10.31
2018-06-17T09:16:42.635Z,10.36
2018-06-17T09:17:42.612Z,10.43
2018-06-17T09:18:42.576Z,10.18
2018-06-17T09:19:42.486Z,10.2
2018-06-17T09:20:42.541Z,10.16
2018-06-17T09:21:42.600Z,10.25
2018-06-17T09:22:42.397Z,10.22
2018-06-17T09:23:42.706Z,10.21
2018-06-17T09:24:42.393Z,10.23
2018-06-17T09:25:42.395Z,10.28
2018-06-17T09:26:42.397Z,10.24
2018-06-17T09:27:42.412Z,10.24
2018-06-17T09:28:42.387Z,9.9
2018-06-17T09:29:42.447Z,9.92
2018-06-17T09:30:42.415Z,9.96
2018-06-17T09:31:42.710Z,10.17
2018-06-17T09:32:42.563Z,9.99
2018-06-17T09:33:42.418Z,9.95
2018-06-17T09:34:42.686Z,9.98
2018-06-17T09:35:42.579Z,9.96
2018-06-17T09:36:42.459Z,9.98
2018-06-17T09:37:42.487Z,10.08
2018-06-17T09:38:42.412Z,10.07
2018-06-17T09:39:42.641Z,10.21
2018-06-17T09:40:42.527Z,10.23
2018-06-17T09:41:42.540Z,10.32
2018-06-17T09:42:42.403Z,10.27
2018-06-17T09:43:42.431Z,10.37
2018-06-17T09:44:42.425Z,10.45
2018-06-17T09:45:42.454Z,10.49
2018-06-17T09:46:42.452Z,10.42
2018-06-17T09:47:42.472Z,10.4
2018-06-17T09:48:42.437Z,10.23
2018-06-17T09:49:42.659Z,10.2
2018-06-17T09:50:42.431Z,10.3
2018-06-17T09:51:42.494Z,10.38
2018-06-17T09:52:42.420Z,10.48
2018-06-17T09:53:42.468Z,10.5
2018-06-17T09:54:42.637Z,10.1
2018-06-17T09:55:42.632Z,10.34
2018-06-17T09:56:42.454Z,10.3
2018-06-17T09:57:42.562Z,10.41
2018-06-17T09:58:42.521Z,10.2
2018-06-17T09:59:42.527Z,10.14
2018-06-17T10:00:42.456Z,10.05
2018-06-17T10:01:42.802Z,10.26
2018-06-17T10:02:42.505Z,10.01
2018-06-17T10:03:42.571Z,10.14
2018-06-17T10:04:42.591Z,10.05
2018-06-17T10:05:42.503Z,9.98
2018-06-17T10:06:42.471Z,10.06
2018-06-17T10:07:42.474Z,10.07
2018-06-17T10:08:42.485Z,9.94
2018-06-17T10:09:42.621Z,9.96
2018-06-17T10:10:42.458Z,10.08
2018-06-17T10:11:42.475Z,10.12
2018-06-17T10:12:42.455Z,10.14
2018-06-17T10:13:42.535Z,10.28
2018-06-17T10:14:42.673Z,10.4
2018-06-17T10:15:42.458Z,10.25
2018-06-17T10:16:42.639Z,10.15
2018-06-17T10:17:42.477Z,10.36
2018-06-17T10:18:42.474Z,10.39
2018-06-17T10:19:42.598Z,10.44
2018-06-17T10:20:42.512Z,10.5
2018-06-17T10:21:42.498Z,10.6
2018-06-17T10:22:42.475Z,10.4
2018-06-17T10:23:42.485Z,10.55
2018-06-17T10:24:42.469Z,10.54
2018-06-17T10:25:42.621Z,10.5
2018-06-17T10:26:42.474Z,10.5
2018-06-17T10:27:42.525Z,10.23
2018-06-17T10:28:42.527Z,10.08
2018-06-17T10:29:42.519Z,9.83
2018-06-17T10:30:42.460Z,9.8
2018-06-17T10:31:42.500Z,9.78
2018-06-17T10:32:42.525Z,9.77
2018-06-17T10:33:42.658Z,9.86
2018-06-17T10:34:42.682Z,9.86
2018-06-17T10:35:42.505Z,9.89
2018-06-17T10:36:42.492Z,9.97
2018-06-17T10:37:42.525Z,9.89
2018-06-17T10:38:42.546Z,9.9
2018-06-17T10:39:42.510Z,9.87
2018-06-17T10:40:42.471Z,10.08
2018-06-17T10:41:42.524Z,10.16
2018-06-17T10:42:42.528Z,10.22
2018-06-17T10:43:42.535Z,10.32
2018-06-17T10:44:42.495Z,9.91
2018-06-17T10:45:42.561Z,9.73
2018-06-17T10:46:42.500Z,10.03
2018-06-17T10:47:42.557Z,9.99
2018-06-17T10:48:42.541Z,9.95
2018-06-17T10:49:42.588Z,9.9
2018-06-17T10:50:42.515Z,10
2018-06-17T10:51:42.536Z,9.98
2018-06-17T10:52:42.495Z,10.08
2018-06-17T10:53:42.546Z,10.16
2018-06-17T10:54:42.526Z,10.16
2018-06-17T10:55:43.745Z,10.1
2018-06-17T10:56:42.561Z,9.98
2018-06-17T10:57:42.537Z,10.12
2018-06-17T10:58:42.549Z,10.2
2018-06-17T10:59:42.646Z,10.07
2018-06-17T11:00:42.498Z,10
2018-06-17T11:01:42.533Z,10.05
2018-06-17T11:02:42.537Z,10.14
2018-06-17T11:03:42.524Z,10.12
2018-06-17T11:04:42.587Z,9.95
2018-06-17T11:05:43.419Z,10
2018-06-17T11:06:42.557Z,10.1
2018-06-17T11:07:42.706Z,10.1
2018-06-17T11:08:42.562Z,10.02
2018-06-17T11:09:43.647Z,10.25
2018-06-17T11:10:42.722Z,10.45
2018-06-17T11:11:42.539Z,10.42
2018-06-17T11:12:42.601Z,10.28
2018-06-17T11:13:42.645Z,10.27
2018-06-17T11:14:42.653Z,10.59
2018-06-17T11:15:42.581Z,10.4
2018-06-17T11:16:42.527Z,10.38
2018-06-17T11:17:42.560Z,10.25
2018-06-17T11:18:42.525Z,10.22
2018-06-17T11:19:42.908Z,9.94
2018-06-17T11:20:42.549Z,10.22
2018-06-17T11:21:42.640Z,10.27
2018-06-17T11:22:42.557Z,10.32
2018-06-17T11:23:42.610Z,10.46
2018-06-17T11:24:42.727Z,10.29
2018-06-17T11:25:42.843Z,10.11
2018-06-17T11:26:42.777Z,10.03
2018-06-17T11:27:42.702Z,10.12
2018-06-17T11:28:42.685Z,10.18
2018-06-17T11:29:42.702Z,10.15
2018-06-17T11:30:42.666Z,10.14
2018-06-17T11:31:42.820Z,10.2
2018-06-17T11:32:42.844Z,9.93
2018-06-17T11:33:42.731Z,9.91
2018-06-17T11:34:42.757Z,9.83
2018-06-17T11:35:42.838Z,9.99
2018-06-17T11:36:42.783Z,10.04
2018-06-17T11:37:42.713Z,10.03
2018-06-17T11:38:42.723Z,10.08
2018-06-17T11:39:42.692Z,10.21
2018-06-17T11:40:42.829Z,10.01
2018-06-17T11:41:42.683Z,10.08
2018-06-17T11:42:42.562Z,10.03
2018-06-17T11:43:42.573Z,10.2
2018-06-17T11:44:43.530Z,10.16
2018-06-17T11:45:42.783Z,10.08
2018-06-17T11:46:42.718Z,10.08
2018-06-17T11:47:42.596Z,9.98
2018-06-17T11:48:42.679Z,10.14
2018-06-17T11:49:42.777Z,10.2
2018-06-17T11:50:42.609Z,10.18
2018-06-17T11:51:42.785Z,10.19
2018-06-17T11:52:42.602Z,10.23
2018-06-17T11:53:42.626Z,10.32
2018-06-17T11:54:42.754Z,10.39
2018-06-17T11:55:43.055Z,10.13
2018-06-17T11:56:42.792Z,10.22
2018-06-17T11:57:42.739Z,10.24
2018-06-17T11:58:42.753Z,10.15
2018-06-17T11:59:43.141Z,10.12
2018-06-17T12:00:42.765Z,10.22
2018-06-17T12:01:42.746Z,10.45
2018-06-17T12:02:42.589Z,10.34
2018-06-17T12:03:42.610Z,10.31
2018-06-17T12:04:42.589Z,10.2
2018-06-17T12:11:46.859Z,10.55
2018-06-17T12:12:46.820Z,10.52
2018-06-17T12:13:50.088Z,10.31
2018-06-17T12:14:47.218Z,10.36
2018-06-17T12:15:46.875Z,10.49
2018-06-17T12:16:46.805Z,10.6
2018-06-17T12:17:46.810Z,10.52
2018-06-17T12:18:46.939Z,10.55
2018-06-17T12:19:47.977Z,10.48
2018-06-17T12:20:46.794Z,10.44
2018-06-17T12:21:46.808Z,10.34
2018-06-17T12:22:46.961Z,10.31
2018-06-17T12:23:46.811Z,10.33
2018-06-17T12:24:46.990Z,10.52
2018-06-17T12:25:47.098Z,10.52
2018-06-17T12:26:46.965Z,10.51
2018-06-17T12:27:46.968Z,10.62
2018-06-17T12:28:46.977Z,10.48
2018-06-17T12:29:46.776Z,10.47
2018-06-17T12:30:46.765Z,10.52
2018-06-17T12:31:46.939Z,10.6
2018-06-17T12:32:46.931Z,10.44
2018-06-17T12:33:47.190Z,10.44
2018-06-17T12:34:46.958Z,10.44
2018-06-17T12:35:47.013Z,10.56
2018-06-17T12:36:47.146Z,10.62
2018-06-17T12:37:46.921Z,10.65
2018-06-17T12:38:46.866Z,10.61
2018-06-17T12:39:46.783Z,10.48
2018-06-17T12:40:47.009Z,10.54
2018-06-17T12:41:46.801Z,10.58
2018-06-17T12:42:46.819Z,10.48
2018-06-17T12:43:47.092Z,10.52
2018-06-17T12:44:47.003Z,10.53
2018-06-17T12:45:46.799Z,10.54
2018-06-17T12:46:46.883Z,10.59
2018-06-17T12:47:46.861Z,10.54
2018-06-17T12:48:47.104Z,10.51
2018-06-17T12:49:47.103Z,10.57
2018-06-17T12:50:46.787Z,10.71
2018-06-17T12:51:46.759Z,10.66
2018-06-17T12:52:32.794Z,10.62
2018-06-17T12:53:32.998Z,10.68
2018-06-17T12:54:32.896Z,10.82
2018-06-17T12:55:32.759Z,10.72
2018-06-17T12:56:32.917Z,10.76
2018-06-17T12:57:32.735Z,10.7
2018-06-17T12:58:32.760Z,10.58
2018-06-17T12:59:32.813Z,10.55
2018-06-17T13:00:32.735Z,10.64
2018-06-17T13:01:32.730Z,10.61
2018-06-17T13:02:32.769Z,10.66
2018-06-17T13:03:33.072Z,10.65
2018-06-17T13:04:32.970Z,10.42